sensor_id;sensor_type;location;lat;lon;timestamp;pressure;altitude;pressure_sealevel;temperature;humidity
47716;BME280;33476;50.984;3.538;2022-08-19T00:00:11;101470.53;;;22.95;61.64
47716;BME280;33476;50.984;3.538;2022-08-19T00:02:40;101468.72;;;22.96;61.47
47716;BME280;33476;50.984;3.538;2022-08-19T00:05:07;101464.38;;;22.95;61.25
47716;BME280;33476;50.984;3.538;2022-08-19T00:07:33;101468.84;;;22.94;61.08
47716;BME280;33476;50.984;3.538;2022-08-19T00:09:58;101467.56;;;22.89;60.89
47716;BME280;33476;50.984;3.538;2022-08-19T00:12:24;101467.97;;;22.84;61.12
47716;BME280;33476;50.984;3.538;2022-08-19T00:14:49;101470.06;;;22.81;60.85
47716;BME280;33476;50.984;3.538;2022-08-19T00:17:15;101473.25;;;22.75;60.97
47716;BME280;33476;50.984;3.538;2022-08-19T00:19:40;101473.53;;;22.71;60.95
47716;BME280;33476;50.984;3.538;2022-08-19T00:22:06;101479.84;;;22.70;61.13
47716;BME280;33476;50.984;3.538;2022-08-19T00:24:33;101475.50;;;22.69;60.77
47716;BME280;33476;50.984;3.538;2022-08-19T00:26:59;101487.25;;;22.67;60.63
47716;BME280;33476;50.984;3.538;2022-08-19T00:29:27;101472.69;;;22.61;60.63
47716;BME280;33476;50.984;3.538;2022-08-19T00:31:53;101480.81;;;22.60;60.90
47716;BME280;33476;50.984;3.538;2022-08-19T00:34:20;101472.94;;;22.58;60.92
47716;BME280;33476;50.984;3.538;2022-08-19T00:36:46;101481.59;;;22.51;61.15
47716;BME280;33476;50.984;3.538;2022-08-19T00:39:13;101474.72;;;22.48;61.04
47716;BME280;33476;50.984;3.538;2022-08-19T00:41:39;101485.66;;;22.45;61.10
47716;BME280;33476;50.984;3.538;2022-08-19T00:44:11;101482.28;;;22.43;61.20
47716;BME280;33476;50.984;3.538;2022-08-19T00:46:40;101487.47;;;22.45;61.24
47716;BME280;33476;50.984;3.538;2022-08-19T00:49:16;101482.53;;;22.40;61.26
47716;BME280;33476;50.984;3.538;2022-08-19T00:51:47;101484.78;;;22.35;61.15
47716;BME280;33476;50.984;3.538;2022-08-19T00:54:14;101484.03;;;22.33;61.38
47716;BME280;33476;50.984;3.538;2022-08-19T00:56:41;101483.03;;;22.24;61.49
47716;BME280;33476;50.984;3.538;2022-08-19T00:59:08;101484.53;;;22.17;61.60
47716;BME280;33476;50.984;3.538;2022-08-19T01:01:36;101484.81;;;22.14;61.84
47716;BME280;33476;50.984;3.538;2022-08-19T01:04:02;101483.13;;;22.13;61.85
47716;BME280;33476;50.984;3.538;2022-08-19T01:06:28;101490.25;;;22.12;61.82
47716;BME280;33476;50.984;3.538;2022-08-19T01:08:54;101482.66;;;22.08;61.94
47716;BME280;33476;50.984;3.538;2022-08-19T01:11:20;101490.75;;;22.06;62.26
47716;BME280;33476;50.984;3.538;2022-08-19T01:13:46;101488.94;;;22.07;62.14
47716;BME280;33476;50.984;3.538;2022-08-19T01:16:13;101490.63;;;22.08;62.23
47716;BME280;33476;50.984;3.538;2022-08-19T01:18:41;101495.13;;;22.07;61.98
47716;BME280;33476;50.984;3.538;2022-08-19T01:21:15;101489.84;;;21.96;62.43
47716;BME280;33476;50.984;3.538;2022-08-19T01:23:44;101492.25;;;21.99;62.49
47716;BME280;33476;50.984;3.538;2022-08-19T01:26:16;101488.41;;;21.92;62.67
47716;BME280;33476;50.984;3.538;2022-08-19T01:28:43;101490.00;;;21.95;62.69
47716;BME280;33476;50.984;3.538;2022-08-19T01:31:15;101490.97;;;21.94;62.92
47716;BME280;33476;50.984;3.538;2022-08-19T01:33:40;101484.06;;;21.91;62.82
47716;BME280;33476;50.984;3.538;2022-08-19T01:36:11;101486.88;;;21.90;63.03
47716;BME280;33476;50.984;3.538;2022-08-19T01:38:41;101490.88;;;21.84;63.51
47716;BME280;33476;50.984;3.538;2022-08-19T01:41:09;101491.47;;;21.87;63.23
47716;BME280;33476;50.984;3.538;2022-08-19T01:43:35;101493.88;;;21.91;63.13
47716;BME280;33476;50.984;3.538;2022-08-19T01:46:02;101493.03;;;21.90;63.29
47716;BME280;33476;50.984;3.538;2022-08-19T01:48:33;101490.88;;;21.84;63.52
47716;BME280;33476;50.984;3.538;2022-08-19T01:50:59;101499.00;;;21.82;63.51
47716;BME280;33476;50.984;3.538;2022-08-19T01:53:24;101496.88;;;21.76;63.80
47716;BME280;33476;50.984;3.538;2022-08-19T01:55:49;101495.28;;;21.74;63.74
47716;BME280;33476;50.984;3.538;2022-08-19T01:58:20;101487.59;;;21.71;63.89
47716;BME280;33476;50.984;3.538;2022-08-19T02:00:47;101487.94;;;21.77;63.69
47716;BME280;33476;50.984;3.538;2022-08-19T02:03:13;101491.28;;;21.79;63.49
47716;BME280;33476;50.984;3.538;2022-08-19T02:05:40;101493.09;;;21.79;63.50
47716;BME280;33476;50.984;3.538;2022-08-19T02:08:07;101498.28;;;21.80;63.61
47716;BME280;33476;50.984;3.538;2022-08-19T02:10:32;101500.94;;;21.80;63.44
47716;BME280;33476;50.984;3.538;2022-08-19T02:12:58;101499.97;;;21.81;63.54
47716;BME280;33476;50.984;3.538;2022-08-19T02:15:23;101506.41;;;21.79;63.46
47716;BME280;33476;50.984;3.538;2022-08-19T02:17:51;101501.09;;;21.79;63.49
47716;BME280;33476;50.984;3.538;2022-08-19T02:20:16;101494.31;;;21.75;63.69
47716;BME280;33476;50.984;3.538;2022-08-19T02:22:42;101500.47;;;21.75;63.62
47716;BME280;33476;50.984;3.538;2022-08-19T02:25:11;101490.97;;;21.73;63.63
47716;BME280;33476;50.984;3.538;2022-08-19T02:27:37;101493.47;;;21.74;63.54
47716;BME280;33476;50.984;3.538;2022-08-19T02:30:05;101493.88;;;21.70;63.60
47716;BME280;33476;50.984;3.538;2022-08-19T02:32:31;101487.72;;;21.69;63.71
47716;BME280;33476;50.984;3.538;2022-08-19T02:34:57;101487.00;;;21.67;63.84
47716;BME280;33476;50.984;3.538;2022-08-19T02:37:22;101481.81;;;21.66;63.92
47716;BME280;33476;50.984;3.538;2022-08-19T02:40:07;101482.66;;;21.66;63.80
47716;BME280;33476;50.984;3.538;2022-08-19T02:42:32;101481.94;;;21.64;63.92
47716;BME280;33476;50.984;3.538;2022-08-19T02:44:58;101484.72;;;21.63;63.95
47716;BME280;33476;50.984;3.538;2022-08-19T02:47:23;101485.72;;;21.62;63.90
47716;BME280;33476;50.984;3.538;2022-08-19T02:49:48;101485.94;;;21.58;63.83
47716;BME280;33476;50.984;3.538;2022-08-19T02:52:16;101487.19;;;21.54;64.10
47716;BME280;33476;50.984;3.538;2022-08-19T02:54:42;101488.16;;;21.53;64.14
47716;BME280;33476;50.984;3.538;2022-08-19T02:57:08;101492.63;;;21.53;64.14
47716;BME280;33476;50.984;3.538;2022-08-19T02:59:33;101485.75;;;21.50;64.28
47716;BME280;33476;50.984;3.538;2022-08-19T03:01:58;101485.75;;;21.50;64.31
47716;BME280;33476;50.984;3.538;2022-08-19T03:04:24;101489.38;;;21.49;64.14
47716;BME280;33476;50.984;3.538;2022-08-19T03:06:50;101489.50;;;21.48;64.33
47716;BME280;33476;50.984;3.538;2022-08-19T03:09:17;101482.66;;;21.45;64.36
47716;BME280;33476;50.984;3.538;2022-08-19T03:11:43;101480.22;;;21.42;64.39
47716;BME280;33476;50.984;3.538;2022-08-19T03:14:09;101480.22;;;21.42;64.61
47716;BME280;33476;50.984;3.538;2022-08-19T03:16:45;101481.34;;;21.40;64.73
47716;BME280;33476;50.984;3.538;2022-08-19T03:19:11;101477.84;;;21.39;64.84
47716;BME280;33476;50.984;3.538;2022-08-19T03:21:36;101474.19;;;21.40;64.87
47716;BME280;33476;50.984;3.538;2022-08-19T03:24:05;101465.53;;;21.38;64.91
47716;BME280;33476;50.984;3.538;2022-08-19T03:26:31;101466.09;;;21.42;64.78
47716;BME280;33476;50.984;3.538;2022-08-19T03:28:56;101462.34;;;21.44;64.59
47716;BME280;33476;50.984;3.538;2022-08-19T03:31:22;101461.75;;;21.41;64.82
47716;BME280;33476;50.984;3.538;2022-08-19T03:33:49;101471.41;;;21.42;64.77
47716;BME280;33476;50.984;3.538;2022-08-19T03:36:20;101470.69;;;21.40;64.88
47716;BME280;33476;50.984;3.538;2022-08-19T03:38:50;101474.91;;;21.42;64.82
47716;BME280;33476;50.984;3.538;2022-08-19T03:41:28;101470.69;;;21.40;64.73
47716;BME280;33476;50.984;3.538;2022-08-19T03:43:56;101473.84;;;21.45;64.69
47716;BME280;33476;50.984;3.538;2022-08-19T03:46:25;101471.31;;;21.43;64.79
47716;BME280;33476;50.984;3.538;2022-08-19T03:48:53;101473.00;;;21.44;64.68
47716;BME280;33476;50.984;3.538;2022-08-19T03:51:34;101472.38;;;21.41;64.76
47716;BME280;33476;50.984;3.538;2022-08-19T03:54:02;101466.94;;;21.42;64.72
47716;BME280;33476;50.984;3.538;2022-08-19T03:56:29;101464.41;;;21.41;64.63
47716;BME280;33476;50.984;3.538;2022-08-19T03:58:58;101469.03;;;21.39;64.88
47716;BME280;33476;50.984;3.538;2022-08-19T04:01:26;101472.38;;;21.41;64.76
47716;BME280;33476;50.984;3.538;2022-08-19T04:03:56;101477.84;;;21.39;64.71
47716;BME280;33476;50.984;3.538;2022-08-19T04:06:24;101476.16;;;21.38;64.63
47716;BME280;33476;50.984;3.538;2022-08-19T04:08:52;101468.44;;;21.35;64.69
47716;BME280;33476;50.984;3.538;2022-08-19T04:11:22;101470.63;;;21.30;64.94
47716;BME280;33476;50.984;3.538;2022-08-19T04:13:49;101474.84;;;21.33;64.85
47716;BME280;33476;50.984;3.538;2022-08-19T04:16:17;101476.78;;;21.30;64.88
47716;BME280;33476;50.984;3.538;2022-08-19T04:18:43;101475.94;;;21.30;64.92
47716;BME280;33476;50.984;3.538;2022-08-19T04:21:16;101469.16;;;21.26;65.11
47716;BME280;33476;50.984;3.538;2022-08-19T04:23:41;101472.44;;;21.29;64.96
47716;BME280;33476;50.984;3.538;2022-08-19T04:26:07;101474.13;;;21.30;65.08
47716;BME280;33476;50.984;3.538;2022-08-19T04:28:36;101475.94;;;21.30;65.13
47716;BME280;33476;50.984;3.538;2022-08-19T04:31:02;101477.75;;;21.29;64.94
47716;BME280;33476;50.984;3.538;2022-08-19T04:33:27;101477.75;;;21.29;65.30
47716;BME280;33476;50.984;3.538;2022-08-19T04:35:53;101482.09;;;21.30;65.21
47716;BME280;33476;50.984;3.538;2022-08-19T04:38:20;101478.59;;;21.30;65.26
47716;BME280;33476;50.984;3.538;2022-08-19T04:40:50;101476.78;;;21.30;65.21
47716;BME280;33476;50.984;3.538;2022-08-19T04:43:36;101465.31;;;21.30;65.36
47716;BME280;33476;50.984;3.538;2022-08-19T04:46:10;101466.50;;;21.26;65.56
47716;BME280;33476;50.984;3.538;2022-08-19T04:48:36;101467.25;;;21.28;65.71
47716;BME280;33476;50.984;3.538;2022-08-19T04:51:07;101469.41;;;21.23;65.99
47716;BME280;33476;50.984;3.538;2022-08-19T04:53:34;101477.06;;;21.27;65.92
47716;BME280;33476;50.984;3.538;2022-08-19T04:56:05;101477.75;;;21.18;65.95
47716;BME280;33476;50.984;3.538;2022-08-19T04:58:32;101469.69;;;21.20;66.12
47716;BME280;33476;50.984;3.538;2022-08-19T05:00:57;101476.66;;;21.21;66.24
47716;BME280;33476;50.984;3.538;2022-08-19T05:03:25;101482.69;;;21.23;66.13
47716;BME280;33476;50.984;3.538;2022-08-19T05:05:51;101483.53;;;21.23;66.29
47716;BME280;33476;50.984;3.538;2022-08-19T05:08:19;101487.16;;;21.22;66.40
47716;BME280;33476;50.984;3.538;2022-08-19T05:10:48;101484.16;;;21.16;66.72
47716;BME280;33476;50.984;3.538;2022-08-19T05:13:14;101475.63;;;21.12;67.28
47716;BME280;33476;50.984;3.538;2022-08-19T05:15:41;101483.06;;;21.18;66.95
47716;BME280;33476;50.984;3.538;2022-08-19T05:18:07;101488.72;;;21.25;67.23
47716;BME280;33476;50.984;3.538;2022-08-19T05:20:51;101486.91;;;21.25;67.20
47716;BME280;33476;50.984;3.538;2022-08-19T05:23:37;101482.38;;;21.27;67.59
47716;BME280;33476;50.984;3.538;2022-08-19T05:26:02;101482.38;;;21.27;68.02
47716;BME280;33476;50.984;3.538;2022-08-19T05:28:29;101488.38;;;21.29;68.14
47716;BME280;33476;50.984;3.538;2022-08-19T05:30:54;101490.34;;;21.27;68.50
47716;BME280;33476;50.984;3.538;2022-08-19T05:33:21;101482.94;;;21.31;68.73
47716;BME280;33476;50.984;3.538;2022-08-19T05:35:47;101491.50;;;21.35;69.13
47716;BME280;33476;50.984;3.538;2022-08-19T05:38:13;101488.59;;;21.38;69.18
47716;BME280;33476;50.984;3.538;2022-08-19T05:40:39;101493.78;;;21.39;69.67
47716;BME280;33476;50.984;3.538;2022-08-19T05:43:06;101498.81;;;21.42;69.74
47716;BME280;33476;50.984;3.538;2022-08-19T05:45:32;101500.97;;;21.48;69.93
47716;BME280;33476;50.984;3.538;2022-08-19T05:48:02;101494.06;;;21.57;69.82
47716;BME280;33476;50.984;3.538;2022-08-19T05:50:28;101481.22;;;21.62;69.92
47716;BME280;33476;50.984;3.538;2022-08-19T05:52:53;101498.03;;;21.63;70.40
47716;BME280;33476;50.984;3.538;2022-08-19T05:55:19;101489.78;;;21.66;70.35
47716;BME280;33476;50.984;3.538;2022-08-19T05:57:46;101488.16;;;21.74;70.32
47716;BME280;33476;50.984;3.538;2022-08-19T06:00:12;101497.59;;;21.78;70.38
47716;BME280;33476;50.984;3.538;2022-08-19T06:02:39;101495.50;;;21.82;70.57
47716;BME280;33476;50.984;3.538;2022-08-19T06:05:06;101499.59;;;21.86;70.73
47716;BME280;33476;50.984;3.538;2022-08-19T06:07:34;101493.72;;;21.92;70.27
47716;BME280;33476;50.984;3.538;2022-08-19T06:10:00;101485.38;;;21.97;70.25
47716;BME280;33476;50.984;3.538;2022-08-19T06:12:25;101486.69;;;22.02;70.37
47716;BME280;33476;50.984;3.538;2022-08-19T06:14:54;101496.69;;;22.10;70.38
47716;BME280;33476;50.984;3.538;2022-08-19T06:17:20;101485.25;;;22.19;70.09
47716;BME280;33476;50.984;3.538;2022-08-19T06:19:46;101492.81;;;22.24;69.99
47716;BME280;33476;50.984;3.538;2022-08-19T06:22:11;101493.94;;;22.21;70.43
47716;BME280;33476;50.984;3.538;2022-08-19T06:24:38;101496.19;;;22.26;70.55
47716;BME280;33476;50.984;3.538;2022-08-19T06:27:04;101500.44;;;22.28;70.32
47716;BME280;33476;50.984;3.538;2022-08-19T06:29:30;101502.16;;;22.39;70.11
47716;BME280;33476;50.984;3.538;2022-08-19T06:31:59;101495.47;;;22.45;70.03
47716;BME280;33476;50.984;3.538;2022-08-19T06:34:27;101489.84;;;22.48;69.99
47716;BME280;33476;50.984;3.538;2022-08-19T06:36:54;101490.44;;;22.51;69.97
47716;BME280;33476;50.984;3.538;2022-08-19T06:39:25;101505.16;;;22.55;70.04
47716;BME280;33476;50.984;3.538;2022-08-19T06:41:53;101493.38;;;22.58;70.15
47716;BME280;33476;50.984;3.538;2022-08-19T06:44:20;101495.50;;;22.54;70.47
47716;BME280;33476;50.984;3.538;2022-08-19T06:46:46;101499.38;;;22.50;70.74
47716;BME280;33476;50.984;3.538;2022-08-19T06:49:12;101499.38;;;22.50;70.93
47716;BME280;33476;50.984;3.538;2022-08-19T06:51:43;101490.31;;;22.53;70.89
47716;BME280;33476;50.984;3.538;2022-08-19T06:54:09;101489.34;;;22.63;70.32
47716;BME280;33476;50.984;3.538;2022-08-19T06:56:35;101489.50;;;22.62;70.06
47716;BME280;33476;50.984;3.538;2022-08-19T06:59:10;101490.88;;;22.56;70.65
47716;BME280;33476;50.984;3.538;2022-08-19T07:01:37;101495.94;;;22.59;70.90
47716;BME280;33476;50.984;3.538;2022-08-19T07:04:04;101492.41;;;22.59;71.23
47716;BME280;33476;50.984;3.538;2022-08-19T07:06:30;101494.97;;;22.70;71.01
47716;BME280;33476;50.984;3.538;2022-08-19T07:08:57;101491.06;;;22.74;71.06
47716;BME280;33476;50.984;3.538;2022-08-19T07:11:23;101490.81;;;22.77;70.73
47716;BME280;33476;50.984;3.538;2022-08-19T07:13:48;101497.81;;;22.78;70.97
47716;BME280;33476;50.984;3.538;2022-08-19T07:16:17;101490.16;;;22.85;70.67
47716;BME280;33476;50.984;3.538;2022-08-19T07:18:42;101498.56;;;22.90;70.37
47716;BME280;33476;50.984;3.538;2022-08-19T07:21:13;101497.88;;;22.88;70.57
47716;BME280;33476;50.984;3.538;2022-08-19T07:23:40;101501.22;;;22.90;70.58
47716;BME280;33476;50.984;3.538;2022-08-19T07:26:07;101497.88;;;22.88;71.04
47716;BME280;33476;50.984;3.538;2022-08-19T07:52:07;101521.47;;;23.12;70.02
47716;BME280;33476;50.984;3.538;2022-08-19T07:54:36;101514.31;;;23.12;70.52
47716;BME280;33476;50.984;3.538;2022-08-19T07:57:03;101509.97;;;23.11;70.28
47716;BME280;33476;50.984;3.538;2022-08-19T07:59:29;101512.50;;;23.13;70.35
47716;BME280;33476;50.984;3.538;2022-08-19T08:01:55;101514.31;;;23.12;70.44
47716;BME280;33476;50.984;3.538;2022-08-19T08:04:20;101516.53;;;23.17;70.32
47716;BME280;33476;50.984;3.538;2022-08-19T08:07:05;101511.50;;;23.23;70.00
47716;BME280;33476;50.984;3.538;2022-08-19T08:09:50;101526.66;;;23.33;69.83
47716;BME280;33476;50.984;3.538;2022-08-19T08:12:20;101530.06;;;23.35;69.53
47716;BME280;33476;50.984;3.538;2022-08-19T08:14:51;101517.44;;;23.37;69.30
47716;BME280;33476;50.984;3.538;2022-08-19T08:17:19;101522.63;;;23.38;69.79
47716;BME280;33476;50.984;3.538;2022-08-19T08:19:46;101529.06;;;23.36;69.96
47716;BME280;33476;50.984;3.538;2022-08-19T08:22:15;101527.09;;;23.38;69.75
47716;BME280;33476;50.984;3.538;2022-08-19T08:25:14;101519.81;;;23.40;69.64
47716;BME280;33476;50.984;3.538;2022-08-19T08:27:42;101528.09;;;23.46;69.53
47716;BME280;33476;50.984;3.538;2022-08-19T08:30:10;101530.59;;;23.58;69.58
47716;BME280;33476;50.984;3.538;2022-08-19T08:32:38;101536.09;;;23.56;69.37
47716;BME280;33476;50.984;3.538;2022-08-19T08:35:08;101532.44;;;23.57;69.64
47716;BME280;33476;50.984;3.538;2022-08-19T08:37:34;101548.06;;;23.62;69.34
47716;BME280;33476;50.984;3.538;2022-08-19T08:40:23;101548.56;;;23.55;69.89
47716;BME280;33476;50.984;3.538;2022-08-19T08:45:47;101541.31;;;23.67;69.28
47716;BME280;33476;50.984;3.538;2022-08-19T08:48:39;101543.00;;;23.68;69.59
47716;BME280;33476;50.984;3.538;2022-08-19T08:51:11;101542.16;;;23.77;69.22
47716;BME280;33476;50.984;3.538;2022-08-19T08:53:40;101542.56;;;23.82;68.89
47716;BME280;33476;50.984;3.538;2022-08-19T08:56:08;101550.28;;;23.86;68.17
47716;BME280;33476;50.984;3.538;2022-08-19T09:01:47;101542.84;;;23.89;68.26
47716;BME280;33476;50.984;3.538;2022-08-19T09:04:13;101534.56;;;23.92;68.18
47716;BME280;33476;50.984;3.538;2022-08-19T09:06:54;101535.41;;;23.93;68.39
47716;BME280;33476;50.984;3.538;2022-08-19T09:09:34;101537.78;;;23.96;68.24
47716;BME280;33476;50.984;3.538;2022-08-19T09:14:56;101540.41;;;24.15;67.28
47716;BME280;33476;50.984;3.538;2022-08-19T09:17:25;101538.56;;;24.16;67.14
47716;BME280;33476;50.984;3.538;2022-08-19T09:20:19;101536.63;;;24.18;67.13
47716;BME280;33476;50.984;3.538;2022-08-19T09:22:45;101535.75;;;24.36;66.42
47716;BME280;33476;50.984;3.538;2022-08-19T09:25:14;101535.00;;;24.44;65.98
47716;BME280;33476;50.984;3.538;2022-08-19T09:27:41;101529.09;;;24.50;66.18
47716;BME280;33476;50.984;3.538;2022-08-19T09:30:09;101529.31;;;24.57;65.61
47716;BME280;33476;50.984;3.538;2022-08-19T09:32:36;101529.44;;;24.65;65.54
47716;BME280;33476;50.984;3.538;2022-08-19T09:35:02;101528.69;;;24.73;65.38
47716;BME280;33476;50.984;3.538;2022-08-19T09:37:27;101530.88;;;24.87;65.06
47716;BME280;33476;50.984;3.538;2022-08-19T09:39:53;101529.28;;;24.94;64.78
47716;BME280;33476;50.984;3.538;2022-08-19T09:42:19;101529.81;;;24.98;64.18
47716;BME280;33476;50.984;3.538;2022-08-19T09:44:46;101536.72;;;25.00;64.22
47716;BME280;33476;50.984;3.538;2022-08-19T09:47:13;101534.16;;;25.08;63.53
47716;BME280;33476;50.984;3.538;2022-08-19T09:49:39;101536.13;;;25.06;63.51
47716;BME280;33476;50.984;3.538;2022-08-19T09:52:07;101545.84;;;25.07;63.54
47716;BME280;33476;50.984;3.538;2022-08-19T09:54:34;101542.88;;;25.10;63.10
47716;BME280;33476;50.984;3.538;2022-08-19T09:57:00;101546.06;;;25.14;62.87
47716;BME280;33476;50.984;3.538;2022-08-19T09:59:26;101546.78;;;25.16;62.55
47716;BME280;33476;50.984;3.538;2022-08-19T10:01:52;101548.59;;;25.15;62.24
47716;BME280;33476;50.984;3.538;2022-08-19T10:04:17;101556.47;;;25.17;62.43
47716;BME280;33476;50.984;3.538;2022-08-19T10:06:43;101551.88;;;25.09;62.34
47716;BME280;33476;50.984;3.538;2022-08-19T10:09:10;101550.06;;;25.10;62.44
47716;BME280;33476;50.984;3.538;2022-08-19T10:11:36;101548.66;;;25.06;62.39
47716;BME280;33476;50.984;3.538;2022-08-19T10:14:04;101551.47;;;25.04;62.09
47716;BME280;33476;50.984;3.538;2022-08-19T10:16:31;101551.47;;;25.04;62.13
47716;BME280;33476;50.984;3.538;2022-08-19T10:18:57;101553.31;;;25.04;62.27
47716;BME280;33476;50.984;3.538;2022-08-19T10:21:27;101542.91;;;25.01;62.06
47716;BME280;33476;50.984;3.538;2022-08-19T10:23:55;101537.41;;;25.02;62.25
47716;BME280;33476;50.984;3.538;2022-08-19T10:26:25;101535.59;;;25.03;62.30
47716;BME280;33476;50.984;3.538;2022-08-19T10:28:51;101540.63;;;25.06;62.01
47716;BME280;33476;50.984;3.538;2022-08-19T10:31:19;101538.06;;;25.14;62.37
47716;BME280;33476;50.984;3.538;2022-08-19T10:33:46;101534.78;;;25.20;62.11
47716;BME280;33476;50.984;3.538;2022-08-19T10:36:17;101538.38;;;25.11;62.00
47716;BME280;33476;50.984;3.538;2022-08-19T10:38:47;101536.13;;;25.06;62.36
47716;BME280;33476;50.984;3.538;2022-08-19T10:41:17;101528.81;;;25.08;62.06
47716;BME280;33476;50.984;3.538;2022-08-19T10:43:44;101543.13;;;25.17;62.34
47716;BME280;33476;50.984;3.538;2022-08-19T10:46:12;101539.03;;;25.13;61.59
47716;BME280;33476;50.984;3.538;2022-08-19T10:48:39;101545.84;;;25.07;61.85
47716;BME280;33476;50.984;3.538;2022-08-19T10:51:05;101543.19;;;25.07;61.67
47716;BME280;33476;50.984;3.538;2022-08-19T10:53:50;101542.88;;;25.10;61.90
47716;BME280;33476;50.984;3.538;2022-08-19T10:56:16;101542.72;;;25.12;61.82
47716;BME280;33476;50.984;3.538;2022-08-19T10:59:00;101543.72;;;25.11;61.53
47716;BME280;33476;50.984;3.538;2022-08-19T11:01:29;101548.91;;;25.12;61.13
47716;BME280;33476;50.984;3.538;2022-08-19T11:03:56;101546.06;;;25.14;61.33
47716;BME280;33476;50.984;3.538;2022-08-19T11:06:22;101547.91;;;25.13;61.37
47716;BME280;33476;50.984;3.538;2022-08-19T11:08:50;101557.31;;;25.17;61.29
47716;BME280;33476;50.984;3.538;2022-08-19T11:11:15;101541.81;;;25.21;61.29
47716;BME280;33476;50.984;3.538;2022-08-19T11:13:41;101550.81;;;25.20;61.52
47716;BME280;33476;50.984;3.538;2022-08-19T11:16:14;101541.28;;;25.17;61.94
47716;BME280;33476;50.984;3.538;2022-08-19T11:18:48;101540.13;;;25.20;61.43
47716;BME280;33476;50.984;3.538;2022-08-19T11:21:17;101536.69;;;25.28;61.60
47716;BME280;33476;50.984;3.538;2022-08-19T11:23:44;101530.44;;;25.37;61.60
47716;BME280;33476;50.984;3.538;2022-08-19T11:26:10;101536.34;;;25.40;60.92
47716;BME280;33476;50.984;3.538;2022-08-19T11:28:36;101538.31;;;25.38;61.09
47716;BME280;33476;50.984;3.538;2022-08-19T11:31:01;101539.00;;;25.40;61.11
47716;BME280;33476;50.984;3.538;2022-08-19T11:33:29;101533.34;;;25.43;60.80
47716;BME280;33476;50.984;3.538;2022-08-19T11:35:57;101533.94;;;25.37;60.44
47716;BME280;33476;50.984;3.538;2022-08-19T11:38:22;101535.47;;;25.40;59.99
47716;BME280;33476;50.984;3.538;2022-08-19T11:40:55;101536.19;;;25.42;60.37
47716;BME280;33476;50.984;3.538;2022-08-19T11:43:20;101537.69;;;25.44;60.18
47716;BME280;33476;50.984;3.538;2022-08-19T11:45:46;101539.38;;;25.45;59.97
47716;BME280;33476;50.984;3.538;2022-08-19T11:48:13;101542.88;;;25.46;59.87
47716;BME280;33476;50.984;3.538;2022-08-19T11:50:39;101543.03;;;25.44;59.54
47716;BME280;33476;50.984;3.538;2022-08-19T11:53:07;101544.56;;;25.47;59.73
47716;BME280;33476;50.984;3.538;2022-08-19T11:55:32;101545.03;;;25.42;59.63
47716;BME280;33476;50.984;3.538;2022-08-19T11:58:01;101544.34;;;25.40;59.41
47716;BME280;33476;50.984;3.538;2022-08-19T12:00:26;101548.47;;;25.35;59.75
47716;BME280;33476;50.984;3.538;2022-08-19T12:02:52;101548.22;;;25.28;59.84
47716;BME280;33476;50.984;3.538;2022-08-19T12:05:17;101552.44;;;25.31;60.23
47716;BME280;33476;50.984;3.538;2022-08-19T12:07:42;101549.63;;;25.32;60.18
47716;BME280;33476;50.984;3.538;2022-08-19T12:10:09;101544.72;;;25.28;60.50
47716;BME280;33476;50.984;3.538;2022-08-19T12:12:34;101547.16;;;25.21;60.44
47716;BME280;33476;50.984;3.538;2022-08-19T12:14:59;101547.47;;;25.18;60.92
47716;BME280;33476;50.984;3.538;2022-08-19T12:17:26;101541.81;;;25.21;61.24
47716;BME280;33476;50.984;3.538;2022-08-19T12:19:52;101539.81;;;25.23;61.48
47716;BME280;33476;50.984;3.538;2022-08-19T12:22:17;101529.19;;;25.31;61.41
47716;BME280;33476;50.984;3.538;2022-08-19T12:24:43;101529.75;;;25.35;61.79
47716;BME280;33476;50.984;3.538;2022-08-19T12:27:09;101518.97;;;25.44;60.99
47716;BME280;33476;50.984;3.538;2022-08-19T12:29:34;101529.06;;;25.51;61.08
47716;BME280;33476;50.984;3.538;2022-08-19T12:31:59;101527.53;;;25.66;61.11
47716;BME280;33476;50.984;3.538;2022-08-19T12:34:28;101518.34;;;25.86;60.58
47716;BME280;33476;50.984;3.538;2022-08-19T12:37:00;101520.63;;;25.99;60.00
47716;BME280;33476;50.984;3.538;2022-08-19T12:39:26;101523.72;;;26.12;59.65
47716;BME280;33476;50.984;3.538;2022-08-19T12:41:53;101518.56;;;26.19;59.14
47716;BME280;33476;50.984;3.538;2022-08-19T12:44:18;101516.41;;;26.22;59.45
47716;BME280;33476;50.984;3.538;2022-08-19T12:46:44;101520.19;;;26.12;58.75
47716;BME280;33476;50.984;3.538;2022-08-19T12:49:09;101536.25;;;26.12;59.13
47716;BME280;33476;50.984;3.538;2022-08-19T12:51:35;101544.78;;;26.07;61.16
47716;BME280;33476;50.984;3.538;2022-08-19T12:54:00;101553.03;;;25.96;63.33
47716;BME280;33476;50.984;3.538;2022-08-19T12:56:26;101557.06;;;25.74;65.62
47716;BME280;33476;50.984;3.538;2022-08-19T12:58:52;101555.19;;;25.57;66.84
47716;BME280;33476;50.984;3.538;2022-08-19T13:01:18;101549.72;;;25.40;67.65
47716;BME280;33476;50.984;3.538;2022-08-19T13:03:45;101557.94;;;25.29;68.41
47716;BME280;33476;50.984;3.538;2022-08-19T13:06:11;101548.69;;;25.24;68.29
47716;BME280;33476;50.984;3.538;2022-08-19T13:08:37;101556.00;;;25.21;68.79
47716;BME280;33476;50.984;3.538;2022-08-19T13:11:12;101544.47;;;25.21;69.28
47716;BME280;33476;50.984;3.538;2022-08-19T13:13:41;101552.59;;;25.29;69.22
47716;BME280;33476;50.984;3.538;2022-08-19T13:16:09;101549.63;;;25.32;69.73
47716;BME280;33476;50.984;3.538;2022-08-19T13:18:36;101559.00;;;25.36;69.98
47716;BME280;33476;50.984;3.538;2022-08-19T13:21:07;101545.97;;;25.33;70.32
47716;BME280;33476;50.984;3.538;2022-08-19T13:23:34;101533.09;;;25.37;69.95
47716;BME280;33476;50.984;3.538;2022-08-19T13:26:03;101535.63;;;25.38;70.15